sensor_id;sensor_type;location;lat;lon;timestamp;P1;durP1;ratioP1;P2;durP2;ratioP2
39994;SDS011;25686;51.908;10.418;2023-02-15T00:01:22;4.50;;;2.37;;
39994;SDS011;25686;51.908;10.418;2023-02-15T00:03:23;3.50;;;1.73;;
39994;SDS011;25686;51.908;10.418;2023-02-15T00:05:24;3.80;;;2.40;;
39994;SDS011;25686;51.908;10.418;2023-02-15T00:07:25;4.43;;;2.40;;
39994;SDS011;25686;51.908;10.418;2023-02-15T00:09:26;4.03;;;1.87;;
39994;SDS011;25686;51.908;10.418;2023-02-15T00:11:27;2.97;;;1.97;;
39994;SDS011;25686;51.908;10.418;2023-02-15T00:13:40;6.20;;;2.10;;
39994;SDS011;25686;51.908;10.418;2023-02-15T00:15:41;3.23;;;2.00;;
39994;SDS011;25686;51.908;10.418;2023-02-15T00:17:42;3.83;;;2.00;;
39994;SDS011;25686;51.908;10.418;2023-02-15T00:19:43;3.10;;;1.90;;
39994;SDS011;25686;51.908;10.418;2023-02-15T00:21:45;3.20;;;2.10;;
39994;SDS011;25686;51.908;10.418;2023-02-15T00:23:46;2.83;;;1.93;;
39994;SDS011;25686;51.908;10.418;2023-02-15T00:25:47;3.10;;;1.60;;
39994;SDS011;25686;51.908;10.418;2023-02-15T00:27:48;3.43;;;2.20;;
39994;SDS011;25686;51.908;10.418;2023-02-15T00:29:49;3.97;;;2.17;;
39994;SDS011;25686;51.908;10.418;2023-02-15T00:31:50;3.00;;;1.80;;
39994;SDS011;25686;51.908;10.418;2023-02-15T00:33:51;4.37;;;2.00;;
39994;SDS011;25686;51.908;10.418;2023-02-15T00:35:56;3.27;;;1.90;;
39994;SDS011;25686;51.908;10.418;2023-02-15T00:37:57;4.93;;;1.90;;
39994;SDS011;25686;51.908;10.418;2023-02-15T00:39:59;2.70;;;1.73;;
39994;SDS011;25686;51.908;10.418;2023-02-15T00:42:00;2.70;;;1.90;;
39994;SDS011;25686;51.908;10.418;2023-02-15T00:44:01;3.13;;;2.10;;
39994;SDS011;25686;51.908;10.418;2023-02-15T00:46:03;2.80;;;1.73;;
39994;SDS011;25686;51.908;10.418;2023-02-15T00:48:05;5.20;;;2.20;;
39994;SDS011;25686;51.908;10.418;2023-02-15T00:50:06;3.90;;;2.00;;
39994;SDS011;25686;51.908;10.418;2023-02-15T00:52:07;2.87;;;1.90;;
39994;SDS011;25686;51.908;10.418;2023-02-15T00:54:08;1.37;;;1.27;;
39994;SDS011;25686;51.908;10.418;2023-02-15T00:56:09;2.13;;;1.67;;
39994;SDS011;25686;51.908;10.418;2023-02-15T00:58:11;2.40;;;1.80;;
39994;SDS011;25686;51.908;10.418;2023-02-15T01:00:12;2.30;;;1.70;;
39994;SDS011;25686;51.908;10.418;2023-02-15T01:02:13;1.87;;;1.50;;
39994;SDS011;25686;51.908;10.418;2023-02-15T01:04:14;2.97;;;1.80;;
39994;SDS011;25686;51.908;10.418;2023-02-15T01:06:16;2.60;;;1.57;;
39994;SDS011;25686;51.908;10.418;2023-02-15T01:08:17;2.50;;;1.70;;
39994;SDS011;25686;51.908;10.418;2023-02-15T01:10:18;2.60;;;1.77;;
39994;SDS011;25686;51.908;10.418;2023-02-15T01:12:19;1.90;;;1.50;;
39994;SDS011;25686;51.908;10.418;2023-02-15T01:14:20;2.23;;;1.63;;
39994;SDS011;25686;51.908;10.418;2023-02-15T01:16:21;2.47;;;1.40;;
39994;SDS011;25686;51.908;10.418;2023-02-15T01:18:22;2.20;;;1.50;;
39994;SDS011;25686;51.908;10.418;2023-02-15T01:20:24;4.30;;;1.73;;
39994;SDS011;25686;51.908;10.418;2023-02-15T01:22:25;1.80;;;1.50;;
39994;SDS011;25686;51.908;10.418;2023-02-15T01:24:26;4.63;;;1.70;;
39994;SDS011;25686;51.908;10.418;2023-02-15T01:26:27;1.50;;;1.33;;
39994;SDS011;25686;51.908;10.418;2023-02-15T01:28:28;3.20;;;1.40;;
39994;SDS011;25686;51.908;10.418;2023-02-15T01:30:29;4.03;;;1.60;;
39994;SDS011;25686;51.908;10.418;2023-02-15T01:32:30;1.87;;;1.50;;
39994;SDS011;25686;51.908;10.418;2023-02-15T01:34:31;3.60;;;1.60;;
39994;SDS011;25686;51.908;10.418;2023-02-15T01:36:33;2.30;;;1.40;;
39994;SDS011;25686;51.908;10.418;2023-02-15T01:38:35;2.43;;;1.60;;
39994;SDS011;25686;51.908;10.418;2023-02-15T01:40:36;2.83;;;1.80;;
39994;SDS011;25686;51.908;10.418;2023-02-15T01:42:38;2.20;;;1.40;;
39994;SDS011;25686;51.908;10.418;2023-02-15T01:44:50;3.03;;;1.70;;
39994;SDS011;25686;51.908;10.418;2023-02-15T01:46:51;2.50;;;1.40;;
39994;SDS011;25686;51.908;10.418;2023-02-15T01:48:57;1.80;;;1.07;;
39994;SDS011;25686;51.908;10.418;2023-02-15T01:50:59;2.43;;;1.40;;
39994;SDS011;25686;51.908;10.418;2023-02-15T01:55:09;1.57;;;1.23;;
39994;SDS011;25686;51.908;10.418;2023-02-15T01:57:11;2.57;;;1.17;;
39994;SDS011;25686;51.908;10.418;2023-02-15T01:59:14;1.60;;;1.27;;
39994;SDS011;25686;51.908;10.418;2023-02-15T02:01:16;3.83;;;1.20;;
39994;SDS011;25686;51.908;10.418;2023-02-15T02:03:19;2.57;;;1.30;;
39994;SDS011;25686;51.908;10.418;2023-02-15T02:05:24;1.70;;;1.10;;
39994;SDS011;25686;51.908;10.418;2023-02-15T02:07:27;1.33;;;1.00;;
39994;SDS011;25686;51.908;10.418;2023-02-15T02:09:28;1.27;;;1.10;;
39994;SDS011;25686;51.908;10.418;2023-02-15T02:11:29;1.40;;;1.07;;
39994;SDS011;25686;51.908;10.418;2023-02-15T02:13:30;4.07;;;1.40;;
39994;SDS011;25686;51.908;10.418;2023-02-15T02:15:44;1.13;;;1.03;;
39994;SDS011;25686;51.908;10.418;2023-02-15T02:17:59;1.67;;;1.10;;
39994;SDS011;25686;51.908;10.418;2023-02-15T02:20:13;1.83;;;0.87;;
39994;SDS011;25686;51.908;10.418;2023-02-15T02:35:30;1.63;;;1.20;;
39994;SDS011;25686;51.908;10.418;2023-02-15T02:37:43;2.00;;;1.20;;
39994;SDS011;25686;51.908;10.418;2023-02-15T02:39:51;1.73;;;1.00;;
39994;SDS011;25686;51.908;10.418;2023-02-15T02:42:09;3.10;;;1.03;;
39994;SDS011;25686;51.908;10.418;2023-02-15T02:46:15;3.03;;;1.10;;
39994;SDS011;25686;51.908;10.418;2023-02-15T02:48:21;1.37;;;1.03;;
39994;SDS011;25686;51.908;10.418;2023-02-15T02:50:25;3.23;;;1.13;;
39994;SDS011;25686;51.908;10.418;2023-02-15T02:52:45;1.93;;;1.00;;
39994;SDS011;25686;51.908;10.418;2023-02-15T02:54:47;2.43;;;1.00;;
39994;SDS011;25686;51.908;10.418;2023-02-15T02:56:47;1.47;;;1.00;;
39994;SDS011;25686;51.908;10.418;2023-02-15T02:58:51;0.90;;;0.77;;
39994;SDS011;25686;51.908;10.418;2023-02-15T03:03:00;1.43;;;1.00;;
39994;SDS011;25686;51.908;10.418;2023-02-15T03:05:06;1.20;;;0.73;;
39994;SDS011;25686;51.908;10.418;2023-02-15T03:07:10;1.53;;;1.03;;
39994;SDS011;25686;51.908;10.418;2023-02-15T03:09:14;1.27;;;0.90;;
39994;SDS011;25686;51.908;10.418;2023-02-15T03:11:16;3.37;;;1.17;;
39994;SDS011;25686;51.908;10.418;2023-02-15T03:13:17;1.10;;;0.93;;
39994;SDS011;25686;51.908;10.418;2023-02-15T03:15:19;1.10;;;1.00;;
39994;SDS011;25686;51.908;10.418;2023-02-15T03:17:21;1.30;;;0.90;;
39994;SDS011;25686;51.908;10.418;2023-02-15T03:19:30;2.63;;;1.10;;
39994;SDS011;25686;51.908;10.418;2023-02-15T03:21:36;0.90;;;0.90;;
39994;SDS011;25686;51.908;10.418;2023-02-15T03:23:40;1.37;;;1.00;;
39994;SDS011;25686;51.908;10.418;2023-02-15T03:25:41;3.37;;;0.90;;
39994;SDS011;25686;51.908;10.418;2023-02-15T03:27:44;1.73;;;1.00;;
39994;SDS011;25686;51.908;10.418;2023-02-15T03:29:47;1.57;;;1.17;;
39994;SDS011;25686;51.908;10.418;2023-02-15T03:31:51;1.30;;;1.00;;
39994;SDS011;25686;51.908;10.418;2023-02-15T03:34:04;1.10;;;1.00;;
39994;SDS011;25686;51.908;10.418;2023-02-15T03:36:17;1.27;;;0.90;;
39994;SDS011;25686;51.908;10.418;2023-02-15T03:38:20;1.57;;;1.00;;
39994;SDS011;25686;51.908;10.418;2023-02-15T03:40:37;0.80;;;0.80;;
39994;SDS011;25686;51.908;10.418;2023-02-15T03:43:01;1.23;;;0.90;;
39994;SDS011;25686;51.908;10.418;2023-02-15T03:45:10;1.40;;;1.07;;
39994;SDS011;25686;51.908;10.418;2023-02-15T03:47:19;1.53;;;1.00;;
39994;SDS011;25686;51.908;10.418;2023-02-15T03:49:22;1.07;;;0.90;;
39994;SDS011;25686;51.908;10.418;2023-02-15T03:51:26;4.50;;;1.00;;
39994;SDS011;25686;51.908;10.418;2023-02-15T03:53:34;1.00;;;0.90;;
39994;SDS011;25686;51.908;10.418;2023-02-15T03:55:35;1.47;;;0.70;;
39994;SDS011;25686;51.908;10.418;2023-02-15T03:57:36;0.93;;;0.77;;
39994;SDS011;25686;51.908;10.418;2023-02-15T03:59:57;2.17;;;0.90;;
39994;SDS011;25686;51.908;10.418;2023-02-15T04:02:20;2.50;;;0.93;;
39994;SDS011;25686;51.908;10.418;2023-02-15T04:04:45;1.60;;;1.00;;
39994;SDS011;25686;51.908;10.418;2023-02-15T04:06:43;1.10;;;0.80;;
39994;SDS011;25686;51.908;10.418;2023-02-15T04:08:44;2.63;;;1.00;;
39994;SDS011;25686;51.908;10.418;2023-02-15T04:11:04;1.17;;;0.90;;
39994;SDS011;25686;51.908;10.418;2023-02-15T04:13:05;1.40;;;1.00;;
39994;SDS011;25686;51.908;10.418;2023-02-15T04:15:06;0.97;;;0.80;;
39994;SDS011;25686;51.908;10.418;2023-02-15T04:17:26;2.33;;;1.00;;
39994;SDS011;25686;51.908;10.418;2023-02-15T04:19:27;2.87;;;0.87;;
39994;SDS011;25686;51.908;10.418;2023-02-15T04:21:47;1.00;;;0.70;;
39994;SDS011;25686;51.908;10.418;2023-02-15T04:24:06;1.47;;;0.90;;
39994;SDS011;25686;51.908;10.418;2023-02-15T04:26:26;1.07;;;0.80;;
39994;SDS011;25686;51.908;10.418;2023-02-15T04:28:27;1.63;;;1.00;;
39994;SDS011;25686;51.908;10.418;2023-02-15T04:30:28;0.97;;;0.73;;
39994;SDS011;25686;51.908;10.418;2023-02-15T04:32:29;0.63;;;0.60;;
39994;SDS011;25686;51.908;10.418;2023-02-15T04:34:29;1.00;;;0.70;;
39994;SDS011;25686;51.908;10.418;2023-02-15T04:36:30;0.87;;;0.80;;
39994;SDS011;25686;51.908;10.418;2023-02-15T04:38:31;1.90;;;0.80;;
39994;SDS011;25686;51.908;10.418;2023-02-15T04:40:32;1.33;;;0.80;;
39994;SDS011;25686;51.908;10.418;2023-02-15T04:42:33;0.83;;;0.70;;
39994;SDS011;25686;51.908;10.418;2023-02-15T04:44:34;0.63;;;0.63;;
39994;SDS011;25686;51.908;10.418;2023-02-15T04:46:35;3.17;;;0.90;;
39994;SDS011;25686;51.908;10.418;2023-02-15T04:48:36;1.50;;;0.63;;
39994;SDS011;25686;51.908;10.418;2023-02-15T04:50:37;0.80;;;0.77;;
39994;SDS011;25686;51.908;10.418;2023-02-15T04:52:38;1.40;;;0.73;;
39994;SDS011;25686;51.908;10.418;2023-02-15T04:54:39;0.83;;;0.80;;
39994;SDS011;25686;51.908;10.418;2023-02-15T04:56:40;0.70;;;0.70;;
39994;SDS011;25686;51.908;10.418;2023-02-15T04:58:42;1.30;;;0.80;;
39994;SDS011;25686;51.908;10.418;2023-02-15T05:00:43;1.43;;;0.87;;
39994;SDS011;25686;51.908;10.418;2023-02-15T05:02:44;1.90;;;0.70;;
39994;SDS011;25686;51.908;10.418;2023-02-15T05:04:45;0.60;;;0.60;;
39994;SDS011;25686;51.908;10.418;2023-02-15T05:06:46;1.40;;;0.77;;
39994;SDS011;25686;51.908;10.418;2023-02-15T05:08:47;1.57;;;0.80;;
39994;SDS011;25686;51.908;10.418;2023-02-15T05:10:48;2.30;;;0.80;;
39994;SDS011;25686;51.908;10.418;2023-02-15T05:12:49;0.70;;;0.70;;
39994;SDS011;25686;51.908;10.418;2023-02-15T05:14:50;1.13;;;0.87;;
39994;SDS011;25686;51.908;10.418;2023-02-15T05:16:51;1.23;;;0.70;;
39994;SDS011;25686;51.908;10.418;2023-02-15T05:18:53;0.50;;;0.50;;
39994;SDS011;25686;51.908;10.418;2023-02-15T05:20:54;2.73;;;0.73;;
39994;SDS011;25686;51.908;10.418;2023-02-15T05:22:55;1.37;;;1.00;;
39994;SDS011;25686;51.908;10.418;2023-02-15T05:24:56;0.80;;;0.60;;
39994;SDS011;25686;51.908;10.418;2023-02-15T05:27:16;0.63;;;0.63;;
39994;SDS011;25686;51.908;10.418;2023-02-15T05:29:35;0.60;;;0.60;;
39994;SDS011;25686;51.908;10.418;2023-02-15T05:31:36;0.60;;;0.60;;
39994;SDS011;25686;51.908;10.418;2023-02-15T05:33:37;0.70;;;0.60;;
39994;SDS011;25686;51.908;10.418;2023-02-15T05:35:39;1.13;;;0.60;;
39994;SDS011;25686;51.908;10.418;2023-02-15T05:37:40;1.20;;;0.70;;
39994;SDS011;25686;51.908;10.418;2023-02-15T05:39:41;1.00;;;0.90;;
39994;SDS011;25686;51.908;10.418;2023-02-15T05:41:42;1.80;;;1.00;;
39994;SDS011;25686;51.908;10.418;2023-02-15T05:43:43;1.30;;;0.80;;
39994;SDS011;25686;51.908;10.418;2023-02-15T05:45:44;1.40;;;0.90;;
39994;SDS011;25686;51.908;10.418;2023-02-15T05:47:45;1.70;;;1.00;;
39994;SDS011;25686;51.908;10.418;2023-02-15T05:49:46;1.87;;;1.00;;
39994;SDS011;25686;51.908;10.418;2023-02-15T05:51:48;1.13;;;0.90;;
39994;SDS011;25686;51.908;10.418;2023-02-15T05:53:49;1.33;;;0.90;;
39994;SDS011;25686;51.908;10.418;2023-02-15T05:55:50;1.83;;;0.90;;
39994;SDS011;25686;51.908;10.418;2023-02-15T05:57:51;1.27;;;0.90;;
39994;SDS011;25686;51.908;10.418;2023-02-15T05:59:52;2.37;;;1.10;;
39994;SDS011;25686;51.908;10.418;2023-02-15T06:01:53;1.73;;;1.03;;
39994;SDS011;25686;51.908;10.418;2023-02-15T06:03:54;1.27;;;1.00;;
39994;SDS011;25686;51.908;10.418;2023-02-15T06:05:55;1.40;;;1.20;;
39994;SDS011;25686;51.908;10.418;2023-02-15T06:07:56;2.40;;;1.23;;
39994;SDS011;25686;51.908;10.418;2023-02-15T06:09:57;2.87;;;1.20;;
39994;SDS011;25686;51.908;10.418;2023-02-15T06:11:58;2.30;;;1.20;;
39994;SDS011;25686;51.908;10.418;2023-02-15T06:13:59;2.10;;;1.50;;
39994;SDS011;25686;51.908;10.418;2023-02-15T06:16:00;1.83;;;1.20;;
39994;SDS011;25686;51.908;10.418;2023-02-15T06:18:01;2.40;;;1.43;;
39994;SDS011;25686;51.908;10.418;2023-02-15T06:20:02;3.50;;;1.40;;
39994;SDS011;25686;51.908;10.418;2023-02-15T06:22:03;4.43;;;1.57;;
39994;SDS011;25686;51.908;10.418;2023-02-15T06:24:07;2.50;;;1.40;;
39994;SDS011;25686;51.908;10.418;2023-02-15T06:26:08;3.53;;;1.70;;
39994;SDS011;25686;51.908;10.418;2023-02-15T06:28:09;1.83;;;1.33;;
39994;SDS011;25686;51.908;10.418;2023-02-15T06:30:11;2.40;;;1.60;;
39994;SDS011;25686;51.908;10.418;2023-02-15T06:32:12;1.87;;;1.30;;
39994;SDS011;25686;51.908;10.418;2023-02-15T06:34:13;5.17;;;1.70;;
39994;SDS011;25686;51.908;10.418;2023-02-15T06:36:14;3.33;;;2.03;;
39994;SDS011;25686;51.908;10.418;2023-02-15T06:38:15;4.30;;;2.40;;
39994;SDS011;25686;51.908;10.418;2023-02-15T06:40:17;5.43;;;2.63;;
39994;SDS011;25686;51.908;10.418;2023-02-15T06:42:18;4.90;;;2.80;;
39994;SDS011;25686;51.908;10.418;2023-02-15T06:44:19;5.77;;;2.80;;
39994;SDS011;25686;51.908;10.418;2023-02-15T06:46:20;4.87;;;2.90;;
39994;SDS011;25686;51.908;10.418;2023-02-15T06:48:21;4.07;;;2.50;;
39994;SDS011;25686;51.908;10.418;2023-02-15T06:50:22;4.50;;;2.70;;
39994;SDS011;25686;51.908;10.418;2023-02-15T06:52:23;5.40;;;2.87;;
39994;SDS011;25686;51.908;10.418;2023-02-15T06:54:24;5.37;;;2.80;;
39994;SDS011;25686;51.908;10.418;2023-02-15T06:56:25;3.20;;;2.03;;
39994;SDS011;25686;51.908;10.418;2023-02-15T06:58:26;6.60;;;3.10;;
39994;SDS011;25686;51.908;10.418;2023-02-15T07:00:27;6.77;;;3.47;;
39994;SDS011;25686;51.908;10.418;2023-02-15T07:02:28;3.83;;;2.13;;
39994;SDS011;25686;51.908;10.418;2023-02-15T07:04:29;3.40;;;2.30;;
39994;SDS011;25686;51.908;10.418;2023-02-15T07:06:31;4.30;;;1.90;;
39994;SDS011;25686;51.908;10.418;2023-02-15T07:08:33;3.10;;;2.00;;
39994;SDS011;25686;51.908;10.418;2023-02-15T07:10:34;3.20;;;1.90;;
39994;SDS011;25686;51.908;10.418;2023-02-15T07:12:35;4.73;;;1.70;;
39994;SDS011;25686;51.908;10.418;2023-02-15T07:14:42;2.60;;;1.80;;
39994;SDS011;25686;51.908;10.418;2023-02-15T07:16:43;2.17;;;1.37;;
39994;SDS011;25686;51.908;10.418;2023-02-15T07:18:44;3.77;;;1.70;;
39994;SDS011;25686;51.908;10.418;2023-02-15T07:20:45;2.43;;;1.70;;
39994;SDS011;25686;51.908;10.418;2023-02-15T07:22:47;2.47;;;1.83;;
39994;SDS011;25686;51.908;10.418;2023-02-15T07:24:48;5.10;;;2.63;;
39994;SDS011;25686;51.908;10.418;2023-02-15T07:26:49;2.73;;;1.63;;
39994;SDS011;25686;51.908;10.418;2023-02-15T07:28:50;3.03;;;1.93;;
39994;SDS011;25686;51.908;10.418;2023-02-15T07:30:51;3.03;;;2.00;;
39994;SDS011;25686;51.908;10.418;2023-02-15T07:32:58;2.47;;;1.50;;
39994;SDS011;25686;51.908;10.418;2023-02-15T07:35:18;3.43;;;1.70;;
39994;SDS011;25686;51.908;10.418;2023-02-15T07:37:19;2.33;;;1.60;;
39994;SDS011;25686;51.908;10.418;2023-02-15T07:39:20;2.42;;;1.60;;
39994;SDS011;25686;51.908;10.418;2023-02-15T07:41:21;1.98;;;1.40;;
39994;SDS011;25686;51.908;10.418;2023-02-15T07:43:23;3.35;;;2.20;;
39994;SDS011;25686;51.908;10.418;2023-02-15T07:45:24;3.30;;;1.73;;
39994;SDS011;25686;51.908;10.418;2023-02-15T07:47:26;2.47;;;1.70;;
39994;SDS011;25686;51.908;10.418;2023-02-15T07:49:27;3.47;;;1.63;;
39994;SDS011;25686;51.908;10.418;2023-02-15T07:51:28;2.20;;;1.52;;
39994;SDS011;25686;51.908;10.418;2023-02-15T07:53:29;2.40;;;1.50;;
39994;SDS011;25686;51.908;10.418;2023-02-15T07:55:30;3.80;;;2.03;;
39994;SDS011;25686;51.908;10.418;2023-02-15T07:57:31;3.47;;;1.90;;
39994;SDS011;25686;51.908;10.418;2023-02-15T07:59:32;2.42;;;1.70;;
39994;SDS011;25686;51.908;10.418;2023-02-15T08:01:37;2.50;;;1.90;;
39994;SDS011;25686;51.908;10.418;2023-02-15T08:03:38;2.67;;;1.90;;
39994;SDS011;25686;51.908;10.418;2023-02-15T08:05:42;3.75;;;1.85;;
39994;SDS011;25686;51.908;10.418;2023-02-15T08:07:43;1.90;;;1.70;;
39994;SDS011;25686;51.908;10.418;2023-02-15T08:09:44;5.32;;;1.70;;
39994;SDS011;25686;51.908;10.418;2023-02-15T08:11:46;3.03;;;1.60;;
39994;SDS011;25686;51.908;10.418;2023-02-15T08:13:48;4.65;;;1.80;;
39994;SDS011;25686;51.908;10.418;2023-02-15T08:15:55;3.60;;;1.85;;
39994;SDS011;25686;51.908;10.418;2023-02-15T08:17:56;1.70;;;1.60;;
39994;SDS011;25686;51.908;10.418;2023-02-15T08:19:57;2.92;;;1.70;;
39994;SDS011;25686;51.908;10.418;2023-02-15T08:23:59;3.03;;;1.50;;
39994;SDS011;25686;51.908;10.418;2023-02-15T08:26:00;2.08;;;1.60;;
39994;SDS011;25686;51.908;10.418;2023-02-15T08:28:01;2.80;;;1.48;;
39994;SDS011;25686;51.908;10.418;2023-02-15T08:30:02;2.17;;;1.55;;
39994;SDS011;25686;51.908;10.418;2023-02-15T08:32:05;1.92;;;1.65;;
39994;SDS011;25686;51.908;10.418;2023-02-15T08:34:07;1.80;;;1.52;;
39994;SDS011;25686;51.908;10.418;2023-02-15T08:36:09;2.17;;;1.73;;
39994;SDS011;25686;51.908;10.418;2023-02-15T08:38:10;2.35;;;1.70;;
39994;SDS011;25686;51.908;10.418;2023-02-15T08:40:11;2.42;;;1.77;;
39994;SDS011;25686;51.908;10.418;2023-02-15T08:42:13;3.90;;;1.88;;
39994;SDS011;25686;51.908;10.418;2023-02-15T08:44:15;2.28;;;1.88;;
39994;SDS011;25686;51.908;10.418;2023-02-15T08:46:16;2.78;;;2.20;;
39994;SDS011;25686;51.908;10.418;2023-02-15T08:48:17;2.25;;;1.92;;
39994;SDS011;25686;51.908;10.418;2023-02-15T08:50:18;3.05;;;2.20;;
39994;SDS011;25686;51.908;10.418;2023-02-15T08:52:19;3.10;;;2.22;;
39994;SDS011;25686;51.908;10.418;2023-02-15T08:54:21;7.85;;;2.30;;
39994;SDS011;25686;51.908;10.418;2023-02-15T08:56:26;3.90;;;2.25;;
39994;SDS011;25686;51.908;10.418;2023-02-15T08:58:28;2.47;;;2.00;;
39994;SDS011;25686;51.908;10.418;2023-02-15T09:00:29;2.88;;;2.17;;
39994;SDS011;25686;51.908;10.418;2023-02-15T09:02:31;7.28;;;2.22;;
39994;SDS011;25686;51.908;10.418;2023-02-15T09:04:32;3.95;;;2.20;;
39994;SDS011;25686;51.908;10.418;2023-02-15T09:06:33;2.00;;;1.80;;
39994;SDS011;25686;51.908;10.418;2023-02-15T09:08:34;7.05;;;2.13;;
39994;SDS011;25686;51.908;10.418;2023-02-15T09:10:35;3.00;;;2.53;;
39994;SDS011;25686;51.908;10.418;2023-02-15T09:12:36;3.85;;;2.30;;
39994;SDS011;25686;51.908;10.418;2023-02-15T09:14:37;3.08;;;2.60;;
39994;SDS011;25686;51.908;10.418;2023-02-15T09:16:38;3.95;;;2.95;;
39994;SDS011;25686;51.908;10.418;2023-02-15T09:18:39;2.83;;;2.53;;
39994;SDS011;25686;51.908;10.418;2023-02-15T09:20:40;4.68;;;3.25;;
39994;SDS011;25686;51.908;10.418;2023-02-15T09:22:41;4.20;;;3.28;;
39994;SDS011;25686;51.908;10.418;2023-02-15T09:24:42;4.70;;;3.03;;
39994;SDS011;25686;51.908;10.418;2023-02-15T09:26:43;7.90;;;3.38;;
39994;SDS011;25686;51.908;10.418;2023-02-15T09:28:45;4.43;;;3.83;;
39994;SDS011;25686;51.908;10.418;2023-02-15T09:30:46;5.65;;;3.38;;
39994;SDS011;25686;51.908;10.418;2023-02-15T09:32:47;8.05;;;3.70;;
39994;SDS011;25686;51.908;10.418;2023-02-15T09:34:48;4.45;;;3.42;;
39994;SDS011;25686;51.908;10.418;2023-02-15T09:36:50;4.05;;;3.50;;
39994;SDS011;25686;51.908;10.418;2023-02-15T09:43:15;6.53;;;4.72;;
39994;SDS011;25686;51.908;10.418;2023-02-15T09:45:31;6.15;;;5.30;;
39994;SDS011;25686;51.908;10.418;2023-02-15T10:01:15;5.03;;;4.53;;
39994;SDS011;25686;51.908;10.418;2023-02-15T10:03:16;7.05;;;4.78;;
39994;SDS011;25686;51.908;10.418;2023-02-15T10:13:50;8.93;;;5.10;;
39994;SDS011;25686;51.908;10.418;2023-02-15T10:18:11;9.90;;;6.18;;
39994;SDS011;25686;51.908;10.418;2023-02-15T10:26:56;6.30;;;5.70;;
39994;SDS011;25686;51.908;10.418;2023-02-15T10:29:07;6.07;;;5.47;;
39994;SDS011;25686;51.908;10.418;2023-02-15T10:35:17;7.18;;;5.47;;
39994;SDS011;25686;51.908;10.418;2023-02-15T10:37:24;8.25;;;4.10;;
39994;SDS011;25686;51.908;10.418;2023-02-15T10:41:46;5.25;;;4.30;;
39994;SDS011;25686;51.908;10.418;2023-02-15T10:50:52;7.63;;;3.20;;
39994;SDS011;25686;51.908;10.418;2023-02-15T10:53:04;3.85;;;2.40;;
39994;SDS011;25686;51.908;10.418;2023-02-15T10:57:48;3.75;;;1.90;;
39994;SDS011;25686;51.908;10.418;2023-02-15T11:02:20;3.53;;;2.40;;
39994;SDS011;25686;51.908;10.418;2023-02-15T11:06:39;4.47;;;1.85;;
39994;SDS011;25686;51.908;10.418;2023-02-15T11:08:43;5.03;;;2.25;;
39994;SDS011;25686;51.908;10.418;2023-02-15T11:10:47;3.30;;;2.13;;
39994;SDS011;25686;51.908;10.418;2023-02-15T11:12:49;4.72;;;2.25;;
39994;SDS011;25686;51.908;10.418;2023-02-15T11:16:53;3.63;;;2.20;;
39994;SDS011;25686;51.908;10.418;2023-02-15T11:19:12;3.67;;;2.38;;
39994;SDS011;25686;51.908;10.418;2023-02-15T11:23:19;4.20;;;2.47;;
39994;SDS011;25686;51.908;10.418;2023-02-15T11:25:25;5.22;;;2.80;;
39994;SDS011;25686;51.908;10.418;2023-02-15T11:27:27;6.47;;;2.80;;
39994;SDS011;25686;51.908;10.418;2023-02-15T11:31:46;5.25;;;3.05;;
39994;SDS011;25686;51.908;10.418;2023-02-15T11:33:52;6.47;;;3.22;;
39994;SDS011;25686;51.908;10.418;2023-02-15T11:35:57;6.93;;;2.75;;
39994;SDS011;25686;51.908;10.418;2023-02-15T11:38:06;4.40;;;2.60;;
39994;SDS011;25686;51.908;10.418;2023-02-15T11:40:21;5.45;;;3.17;;
39994;SDS011;25686;51.908;10.418;2023-02-15T11:42:24;7.55;;;3.13;;
39994;SDS011;25686;51.908;10.418;2023-02-15T11:44:32;6.50;;;3.22;;
39994;SDS011;25686;51.908;10.418;2023-02-15T11:46:36;5.53;;;3.30;;
39994;SDS011;25686;51.908;10.418;2023-02-15T11:48:37;8.77;;;3.75;;
39994;SDS011;25686;51.908;10.418;2023-02-15T11:50:39;6.72;;;3.80;;
39994;SDS011;25686;51.908;10.418;2023-02-15T11:52:40;6.93;;;3.80;;
39994;SDS011;25686;51.908;10.418;2023-02-15T11:54:45;6.28;;;3.60;;
39994;SDS011;25686;51.908;10.418;2023-02-15T11:56:47;6.20;;;3.33;;
39994;SDS011;25686;51.908;10.418;2023-02-15T11:58:58;6.85;;;3.63;;
39994;SDS011;25686;51.908;10.418;2023-02-15T12:03:18;6.38;;;3.60;;
39994;SDS011;25686;51.908;10.418;2023-02-15T12:05:23;6.28;;;3.47;;
39994;SDS011;25686;51.908;10.418;2023-02-15T12:07:28;6.10;;;3.35;;
39994;SDS011;25686;51.908;10.418;2023-02-15T12:09:40;5.57;;;3.38;;
39994;SDS011;25686;51.908;10.418;2023-02-15T12:11:46;4.95;;;3.08;;
39994;SDS011;25686;51.908;10.418;2023-02-15T12:13:53;4.18;;;2.53;;
39994;SDS011;25686;51.908;10.418;2023-02-15T12:15:56;4.68;;;2.70;;
39994;SDS011;25686;51.908;10.418;2023-02-15T12:17:57;4.47;;;2.60;;
39994;SDS011;25686;51.908;10.418;2023-02-15T12:20:02;5.53;;;2.63;;
39994;SDS011;25686;51.908;10.418;2023-02-15T12:22:04;5.40;;;2.92;;
39994;SDS011;25686;51.908;10.418;2023-02-15T12:24:19;6.22;;;2.97;;
39994;SDS011;25686;51.908;10.418;2023-02-15T12:26:24;5.97;;;2.50;;
39994;SDS011;25686;51.908;10.418;2023-02-15T12:28:29;4.05;;;2.60;;
39994;SDS011;25686;51.908;10.418;2023-02-15T12:30:32;6.22;;;2.92;;
39994;SDS011;25686;51.908;10.418;2023-02-15T12:32:35;5.57;;;2.53;;
39994;SDS011;25686;51.908;10.418;2023-02-15T12:34:38;3.90;;;2.47;;
39994;SDS011;25686;51.908;10.418;2023-02-15T12:36:43;4.40;;;2.60;;
39994;SDS011;25686;51.908;10.418;2023-02-15T12:41:23;11.10;;;5.43;;
39994;SDS011;25686;51.908;10.418;2023-02-15T12:43:35;10.20;;;6.15;;
39994;SDS011;25686;51.908;10.418;2023-02-15T12:45:36;10.55;;;5.68;;
39994;SDS011;25686;51.908;10.418;2023-02-15T12:47:38;8.82;;;5.40;;
39994;SDS011;25686;51.908;10.418;2023-02-15T12:49:39;9.32;;;5.57;;
39994;SDS011;25686;51.908;10.418;2023-02-15T12:51:50;10.63;;;6.00;;
39994;SDS011;25686;51.908;10.418;2023-02-15T12:53:51;10.60;;;5.72;;
39994;SDS011;25686;51.908;10.418;2023-02-15T12:55:56;8.38;;;5.05;;
39994;SDS011;25686;51.908;10.418;2023-02-15T13:02:20;10.30;;;5.68;;
39994;SDS011;25686;51.908;10.418;2023-02-15T13:04:25;7.47;;;4.97;;
39994;SDS011;25686;51.908;10.418;2023-02-15T13:06:27;8.23;;;4.53;;
39994;SDS011;25686;51.908;10.418;2023-02-15T13:08:31;6.10;;;3.22;;
39994;SDS011;25686;51.908;10.418;2023-02-15T13:10:35;4.45;;;2.40;;
39994;SDS011;25686;51.908;10.418;2023-02-15T13:12:36;3.55;;;2.15;;
39994;SDS011;25686;51.908;10.418;2023-02-15T13:14:41;3.28;;;2.10;;
39994;SDS011;25686;51.908;10.418;2023-02-15T13:16:44;2.78;;;1.95;;
39994;SDS011;25686;51.908;10.418;2023-02-15T13:18:46;3.90;;;1.95;;
39994;SDS011;25686;51.908;10.418;2023-02-15T13:20:47;3.63;;;2.03;;
39994;SDS011;25686;51.908;10.418;2023-02-15T13:22:57;3.88;;;2.13;;
39994;SDS011;25686;51.908;10.418;2023-02-15T13:25:01;7.00;;;3.92;;
39994;SDS011;25686;51.908;10.418;2023-02-15T13:27:03;12.35;;;5.13;;
39994;SDS011;25686;51.908;10.418;2023-02-15T13:29:06;10.05;;;5.30;;
39994;SDS011;25686;51.908;10.418;2023-02-15T13:31:11;12.07;;;5.53;;
39994;SDS011;25686;51.908;10.418;2023-02-15T13:35:26;6.25;;;3.35;;
39994;SDS011;25686;51.908;10.418;2023-02-15T13:37:34;4.13;;;2.00;;
39994;SDS011;25686;51.908;10.418;2023-02-15T13:39:44;3.58;;;1.80;;
39994;SDS011;25686;51.908;10.418;2023-02-15T13:41:52;2.80;;;1.92;;
39994;SDS011;25686;51.908;10.418;2023-02-15T13:52:52;4.85;;;2.40;;
39994;SDS011;25686;51.908;10.418;2023-02-15T13:57:31;4.22;;;2.25;;
39994;SDS011;25686;51.908;10.418;2023-02-15T14:01:50;5.10;;;2.08;;